Time;durP1;ratioP1;P1;durP2;ratioP2;P2;SDS_P1;SDS_P2;PMS_P1;PMS_P2;Temp;Humidity;BMP_temperature;BMP_pressure;BME280_temperature;BME280_humidity;BME280_pressure;Samples;Min_cycle;Max_cycle;Signal;HPM_P1;HPM_P2
2023/06/16 00:03:07;;;;;;;2.25;1.65;;;;;;;;;;12576712;23;20398;-83
2023/06/16 00:08:10;;;;;;;4.40;2.27;;;;;;;;;;12575620;23;20077;-83
2023/06/16 00:13:14;;;;;;;3.92;1.77;;;;;;;;;;12602389;23;20038;-82
2023/06/16 00:18:19;;;;;;;2.05;1.77;;;;;;;;;;12576566;23;20410;-82
2023/06/16 00:23:23;;;;;;;2.65;1.95;;;;;;;;;;12576153;23;20030;-82
2023/06/16 00:28:26;;;;;;;3.35;2.28;;;;;;;;;;12575630;23;20026;-83
2023/06/16 00:33:31;;;;;;;5.88;2.33;;;;;;;;;;12577448;23;20037;-82
2023/06/16 00:38:34;;;;;;;3.30;2.08;;;;;;;;;;12576418;23;20053;-83
2023/06/16 00:43:37;;;;;;;2.88;2.08;;;;;;;;;;12576800;23;20370;-82
2023/06/16 00:48:42;;;;;;;3.25;1.75;;;;;;;;;;12562405;23;20026;-82
2023/06/16 00:53:46;;;;;;;2.85;1.90;;;;;;;;;;12525687;23;20062;-82
2023/06/16 00:58:51;;;;;;;3.40;1.80;;;;;;;;;;12510796;23;20031;-84
2023/06/16 01:03:57;;;;;;;2.07;1.70;;;;;;;;;;12511160;23;20027;-83
2023/06/16 01:09:07;;;;;;;6.93;2.15;;;;;;;;;;12510808;23;20034;-84
2023/06/16 01:14:18;;;;;;;1.90;1.60;;;;;;;;;;12540282;23;20022;-83
2023/06/16 01:19:29;;;;;;;4.28;2.00;;;;;;;;;;12511079;23;20027;-84
2023/06/16 01:24:36;;;;;;;2.17;1.77;;;;;;;;;;12509506;23;20049;-84
2023/06/16 01:29:40;;;;;;;2.00;1.55;;;;;;;;;;12510614;23;20410;-83
2023/06/16 01:34:44;;;;;;;3.25;2.03;;;;;;;;;;12515221;23;20062;-83
2023/06/16 01:39:50;;;;;;;3.70;2.15;;;;;;;;;;12539095;23;20082;-83
2023/06/16 01:44:54;;;;;;;1.87;1.73;;;;;;;;;;12514017;23;20023;-84
2023/06/16 01:49:58;;;;;;;2.67;1.90;;;;;;;;;;12513855;23;20084;-83
2023/06/16 01:55:03;;;;;;;2.92;1.80;;;;;;;;;;12516598;23;20530;-84
2023/06/16 02:00:13;;;;;;;1.92;1.48;;;;;;;;;;12516284;23;20142;-84
2023/06/16 02:05:21;;;;;;;4.43;2.45;;;;;;;;;;12601163;23;20022;-84
2023/06/16 02:10:26;;;;;;;3.45;1.45;;;;;;;;;;12518092;23;20027;-83
2023/06/16 02:15:32;;;;;;;2.20;1.80;;;;;;;;;;12516439;23;20447;-83
2023/06/16 02:20:35;;;;;;;2.70;1.97;;;;;;;;;;12518401;23;20027;-83
2023/06/16 02:25:40;;;;;;;2.42;1.70;;;;;;;;;;12514302;23;20026;-84
2023/06/16 02:30:44;;;;;;;2.40;1.70;;;;;;;;;;12513102;23;20073;-84
2023/06/16 02:35:47;;;;;;;2.67;1.80;;;;;;;;;;12513383;23;20199;-83
2023/06/16 02:40:52;;;;;;;1.90;1.65;;;;;;;;;;12512733;23;20027;-83
2023/06/16 02:45:55;;;;;;;3.03;1.90;;;;;;;;;;12513952;23;20031;-84
2023/06/16 02:50:59;;;;;;;4.30;2.00;;;;;;;;;;12514239;23;20026;-84
2023/06/16 02:56:06;;;;;;;2.30;1.60;;;;;;;;;;12520605;23;20388;-82
2023/06/16 03:01:11;;;;;;;2.50;1.70;;;;;;;;;;12520979;23;20662;-82
2023/06/16 03:06:35;;;;;;;1.70;1.52;;;;;;;;;;12544500;23;20067;-82
2023/06/16 03:11:48;;;;;;;2.30;1.67;;;;;;;;;;12521159;23;20395;-82
2023/06/16 03:16:52;;;;;;;2.70;2.03;;;;;;;;;;12519413;23;20027;-82
2023/06/16 03:21:56;;;;;;;2.15;1.58;;;;;;;;;;12520148;23;20019;-82
2023/06/16 03:27:11;;;;;;;3.78;2.10;;;;;;;;;;12519390;23;20031;-82
2023/06/16 03:32:25;;;;;;;4.83;2.20;;;;;;;;;;12519831;23;20082;-82
2023/06/16 03:37:28;;;;;;;3.10;1.60;;;;;;;;;;12519644;23;20114;-82
2023/06/16 03:42:34;;;;;;;2.63;1.98;;;;;;;;;;12522741;23;20034;-82
2023/06/16 03:47:38;;;;;;;4.32;1.80;;;;;;;;;;12519997;23;20712;-82
2023/06/16 03:52:42;;;;;;;2.08;1.70;;;;;;;;;;12519252;23;20371;-82
2023/06/16 03:57:47;;;;;;;3.25;1.83;;;;;;;;;;12520342;23;20029;-82
2023/06/16 04:02:51;;;;;;;3.97;1.88;;;;;;;;;;12560327;23;20026;-83
2023/06/16 04:08:02;;;;;;;2.05;1.70;;;;;;;;;;12524290;23;20477;-83
2023/06/16 04:13:09;;;;;;;3.80;2.00;;;;;;;;;;12525389;23;20340;-81
2023/06/16 04:18:17;;;;;;;2.35;1.55;;;;;;;;;;12525005;23;20031;-82
2023/06/16 04:23:21;;;;;;;1.85;1.40;;;;;;;;;;12530451;23;20090;-82
2023/06/16 04:28:42;;;;;;;1.63;1.42;;;;;;;;;;12548121;23;20202;-82
2023/06/16 04:33:47;;;;;;;3.40;1.70;;;;;;;;;;12527570;23;20467;-82
2023/06/16 04:38:52;;;;;;;2.30;1.50;;;;;;;;;;12551089;23;20058;-83
2023/06/16 04:43:57;;;;;;;2.53;1.58;;;;;;;;;;12553437;23;20110;-83
2023/06/16 04:49:00;;;;;;;2.20;1.80;;;;;;;;;;12552685;23;20078;-83
2023/06/16 04:54:04;;;;;;;1.98;1.70;;;;;;;;;;12522794;23;20031;-82
2023/06/16 04:59:10;;;;;;;2.55;1.63;;;;;;;;;;12546621;23;20041;-82
2023/06/16 05:04:14;;;;;;;3.77;2.17;;;;;;;;;;12546836;23;20035;-82
2023/06/16 05:09:17;;;;;;;3.33;1.73;;;;;;;;;;12522236;23;20019;-82
2023/06/16 05:14:22;;;;;;;1.85;1.23;;;;;;;;;;12520878;23;20030;-82
2023/06/16 05:19:25;;;;;;;2.15;1.63;;;;;;;;;;12521547;23;20027;-82
2023/06/16 05:24:33;;;;;;;1.98;1.60;;;;;;;;;;12560943;23;20078;-82
2023/06/16 05:29:40;;;;;;;2.80;1.83;;;;;;;;;;12568504;23;20076;-82
2023/06/16 05:34:43;;;;;;;2.70;1.70;;;;;;;;;;12569117;23;20071;-82
2023/06/16 05:39:48;;;;;;;1.70;1.60;;;;;;;;;;12522027;23;20030;-82
2023/06/16 05:44:53;;;;;;;2.38;1.85;;;;;;;;;;12521257;23;20031;-82
2023/06/16 05:49:58;;;;;;;4.68;1.48;;;;;;;;;;12520717;23;20015;-82
2023/06/16 05:55:02;;;;;;;2.23;1.47;;;;;;;;;;12524189;23;20101;-82
2023/06/16 06:00:17;;;;;;;2.38;1.52;;;;;;;;;;12526340;23;20323;-83
2023/06/16 06:05:27;;;;;;;2.08;1.60;;;;;;;;;;12523770;23;20340;-82
2023/06/16 06:10:31;;;;;;;1.75;1.25;;;;;;;;;;12523984;23;20023;-82
2023/06/16 06:15:36;;;;;;;2.63;1.45;;;;;;;;;;12527522;23;20033;-83
2023/06/16 06:20:46;;;;;;;1.90;1.40;;;;;;;;;;12526548;23;20030;-82
2023/06/16 06:25:49;;;;;;;2.25;1.50;;;;;;;;;;12514259;23;20070;-83
2023/06/16 06:30:58;;;;;;;2.20;1.70;;;;;;;;;;12514348;23;20023;-84
2023/06/16 06:36:09;;;;;;;;;;;;;;;;;;12519480;23;20079;-82
2023/06/16 06:41:20;;;;;;;3.38;1.30;;;;;;;;;;12521730;23;19937;-82
2023/06/16 06:46:28;;;;;;;2.83;1.27;;;;;;;;;;12521287;23;20463;-82
2023/06/16 06:51:43;;;;;;;1.55;1.25;;;;;;;;;;12518788;23;20023;-83
2023/06/16 06:56:46;;;;;;;2.40;1.60;;;;;;;;;;12552882;23;20023;-84
2023/06/16 07:01:51;;;;;;;3.40;1.33;;;;;;;;;;12513492;23;20142;-83
2023/06/16 07:06:55;;;;;;;1.48;1.30;;;;;;;;;;12537592;23;20027;-83
2023/06/16 07:11:59;;;;;;;1.35;1.17;;;;;;;;;;12515467;23;20022;-83
2023/06/16 07:17:03;;;;;;;2.33;1.77;;;;;;;;;;12515516;23;20105;-83
2023/06/16 07:22:07;;;;;;;3.00;1.75;;;;;;;;;;12516922;23;20042;-85
2023/06/16 07:27:10;;;;;;;2.15;1.58;;;;;;;;;;12517071;23;20023;-84
2023/06/16 07:32:15;;;;;;;3.00;1.35;;;;;;;;;;12517697;23;20498;-83
2023/06/16 07:37:18;;;;;;;2.17;1.50;;;;;;;;;;12553635;23;20027;-83
2023/06/16 07:42:22;;;;;;;4.00;1.52;;;;;;;;;;12515307;23;20031;-83
2023/06/16 07:47:26;;;;;;;2.75;2.03;;;;;;;;;;12517521;23;20022;-84
2023/06/16 07:52:30;;;;;;;1.48;1.35;;;;;;;;;;12514314;23;20030;-84
2023/06/16 07:57:34;;;;;;;1.67;1.52;;;;;;;;;;12512100;23;20027;-83
2023/06/16 08:02:39;;;;;;;1.50;1.20;;;;;;;;;;12547164;23;20030;-84
2023/06/16 08:07:43;;;;;;;3.05;1.50;;;;;;;;;;12546665;23;20027;-83
2023/06/16 08:12:49;;;;;;;2.45;1.33;;;;;;;;;;12547551;23;20371;-83
2023/06/16 08:17:53;;;;;;;4.45;1.77;;;;;;;;;;12511327;23;20026;-84
2023/06/16 08:22:57;;;;;;;2.92;2.10;;;;;;;;;;12511040;23;20050;-83
2023/06/16 08:28:00;;;;;;;2.78;1.83;;;;;;;;;;12537398;23;20026;-84
2023/06/16 08:33:09;;;;;;;1.95;1.40;;;;;;;;;;12511860;23;20031;-84
2023/06/16 08:38:12;;;;;;;3.78;2.40;;;;;;;;;;12510618;23;20027;-83
2023/06/16 08:43:16;;;;;;;2.60;1.90;;;;;;;;;;12511122;23;20098;-84
2023/06/16 08:48:22;;;;;;;3.20;1.40;;;;;;;;;;12542528;23;20057;-83
2023/06/16 08:53:29;;;;;;;;;;;;;;;;;;12510885;23;20058;-83
2023/06/16 08:58:33;;;;;;;1.73;1.38;;;;;;;;;;12543891;23;19917;-84
2023/06/16 09:03:58;;;;;;;1.30;1.20;;;;;;;;;;12510457;23;20058;-84
2023/06/16 09:09:12;;;;;;;2.05;1.65;;;;;;;;;;12515365;23;20460;-84
2023/06/16 09:14:36;;;;;;;1.77;1.20;;;;;;;;;;12510213;23;20078;-84
2023/06/16 09:19:47;;;;;;;1.15;1.05;;;;;;;;;;12509781;23;20029;-84
2023/06/16 09:24:55;;;;;;;3.70;1.88;;;;;;;;;;12530724;23;20078;-84
2023/06/16 09:30:00;;;;;;;2.70;2.25;;;;;;;;;;12538895;23;20039;-84
2023/06/16 09:35:16;;;;;;;2.65;2.35;;;;;;;;;;12513958;23;20336;-84
2023/06/16 09:40:20;;;;;;;3.80;2.30;;;;;;;;;;12538720;23;20026;-84
2023/06/16 09:45:29;;;;;;;2.22;1.50;;;;;;;;;;12539637;23;20276;-84
2023/06/16 09:50:35;;;;;;;3.92;1.60;;;;;;;;;;12538021;23;20498;-84
2023/06/16 09:55:40;;;;;;;1.30;1.20;;;;;;;;;;12537226;23;20042;-84
2023/06/16 10:00:44;;;;;;;1.55;1.40;;;;;;;;;;12537637;23;20102;-83
2023/06/16 10:05:53;;;;;;;1.70;1.60;;;;;;;;;;12537317;23;20510;-84
2023/06/16 10:10:57;;;;;;;5.90;2.03;;;;;;;;;;12539012;23;20395;-85
2023/06/16 10:16:03;;;;;;;2.70;1.73;;;;;;;;;;12536566;23;20018;-84
2023/06/16 10:21:10;;;;;;;2.20;1.92;;;;;;;;;;12537157;23;20022;-84
2023/06/16 10:26:14;;;;;;;3.78;2.50;;;;;;;;;;12536258;23;20024;-82
2023/06/16 10:31:18;;;;;;;3.38;2.38;;;;;;;;;;12555111;23;20456;-82
2023/06/16 10:36:29;;;;;;;2.53;2.33;;;;;;;;;;12554021;23;20027;-83
2023/06/16 10:41:33;;;;;;;1.80;1.50;;;;;;;;;;12535869;23;20057;-84
2023/06/16 10:46:36;;;;;;;2.63;2.28;;;;;;;;;;12537011;23;20026;-82
2023/06/16 10:51:46;;;;;;;2.70;2.25;;;;;;;;;;12536978;23;20090;-82
2023/06/16 10:57:05;;;;;;;3.00;1.70;;;;;;;;;;12536681;23;20074;-82
2023/06/16 11:02:21;;;;;;;1.70;1.40;;;;;;;;;;12538954;23;20029;-83
2023/06/16 11:07:26;;;;;;;3.53;1.90;;;;;;;;;;12539001;23;20086;-82
2023/06/16 11:12:36;;;;;;;2.83;1.70;;;;;;;;;;12538341;23;20034;-82
2023/06/16 11:17:42;;;;;;;1.75;1.35;;;;;;;;;;12536168;23;20031;-82
2023/06/16 11:22:47;;;;;;;1.65;1.35;;;;;;;;;;12540116;23;20038;-82
2023/06/16 11:27:51;;;;;;;4.10;2.75;;;;;;;;;;12537309;23;20038;-82
2023/06/16 11:32:57;;;;;;;2.95;2.10;;;;;;;;;;12536886;23;20042;-82
2023/06/16 11:38:01;;;;;;;2.22;1.90;;;;;;;;;;12536113;23;20038;-82
2023/06/16 11:43:06;;;;;;;2.60;2.22;;;;;;;;;;12538377;23;20035;-82
2023/06/16 11:48:10;;;;;;;4.47;1.70;;;;;;;;;;12536623;23;20110;-82
2023/06/16 11:53:16;;;;;;;1.52;1.33;;;;;;;;;;12537154;23;20031;-82
2023/06/16 11:58:21;;;;;;;2.20;1.15;;;;;;;;;;12544222;23;20470;-82
2023/06/16 12:03:24;;;;;;;2.17;1.83;;;;;;;;;;12538623;23;20033;-82
2023/06/16 12:08:42;;;;;;;3.27;1.80;;;;;;;;;;12537308;23;20296;-82
2023/06/16 12:13:45;;;;;;;2.15;1.90;;;;;;;;;;12535535;23;20097;-82
2023/06/16 12:18:50;;;;;;;3.75;2.38;;;;;;;;;;12534458;23;20046;-83
2023/06/16 12:23:57;;;;;;;2.20;2.00;;;;;;;;;;12536546;23;20022;-82
2023/06/16 12:29:02;;;;;;;2.90;2.28;;;;;;;;;;12534687;23;20483;-82
2023/06/16 12:34:06;;;;;;;2.30;2.10;;;;;;;;;;12535549;23;20047;-82
2023/06/16 12:39:17;;;;;;;1.80;1.52;;;;;;;;;;12538452;23;20061;-82
2023/06/16 12:44:21;;;;;;;1.83;1.63;;;;;;;;;;12536052;23;20037;-82
2023/06/16 12:49:24;;;;;;;2.10;1.90;;;;;;;;;;12535744;23;20490;-82
2023/06/16 12:54:29;;;;;;;4.22;1.90;;;;;;;;;;12545376;23;20070;-83
2023/06/16 12:59:33;;;;;;;3.08;1.30;;;;;;;;;;12549940;23;20224;-82
2023/06/16 13:04:36;;;;;;;1.40;1.30;;;;;;;;;;12547373;23;20027;-82
2023/06/16 13:09:41;;;;;;;1.33;1.20;;;;;;;;;;12553342;23;20026;-83
2023/06/16 13:14:44;;;;;;;2.28;2.00;;;;;;;;;;12553971;23;20023;-82
2023/06/16 13:19:48;;;;;;;4.57;1.27;;;;;;;;;;12552472;23;20498;-83
2023/06/16 13:24:53;;;;;;;2.05;1.40;;;;;;;;;;12559451;23;20027;-83
2023/06/16 13:29:57;;;;;;;2.15;1.67;;;;;;;;;;12553581;23;20347;-82
2023/06/16 13:35:00;;;;;;;1.60;1.50;;;;;;;;;;12554602;23;20030;-82
2023/06/16 13:40:06;;;;;;;2.05;1.60;;;;;;;;;;12541182;23;20023;-82
2023/06/16 13:45:10;;;;;;;2.20;2.00;;;;;;;;;;12538529;23;20457;-83
2023/06/16 13:50:13;;;;;;;1.83;1.70;;;;;;;;;;12536325;23;20046;-82
2023/06/16 13:55:18;;;;;;;1.95;1.40;;;;;;;;;;12537390;23;20030;-82
2023/06/16 14:00:21;;;;;;;2.63;2.35;;;;;;;;;;12536069;23;20074;-83
2023/06/16 14:05:25;;;;;;;1.88;1.77;;;;;;;;;;12534395;23;20027;-81
2023/06/16 14:10:30;;;;;;;2.63;1.40;;;;;;;;;;12535930;23;20038;-83
2023/06/16 14:15:35;;;;;;;1.85;1.63;;;;;;;;;;12537812;23;20054;-83
2023/06/16 14:20:38;;;;;;;1.63;1.50;;;;;;;;;;12541183;23;20023;-82
2023/06/16 14:25:44;;;;;;;1.60;1.38;;;;;;;;;;12540155;23;20686;-82
2023/06/16 14:30:48;;;;;;;1.67;1.25;;;;;;;;;;12539635;23;20027;-82
2023/06/16 14:35:51;;;;;;;1.88;1.48;;;;;;;;;;12537823;23;20026;-82
2023/06/16 14:40:56;;;;;;;1.65;1.33;;;;;;;;;;12538047;23;20256;-81
2023/06/16 14:45:59;;;;;;;2.45;1.80;;;;;;;;;;12540011;23;20035;-81
2023/06/16 14:51:02;;;;;;;3.00;2.17;;;;;;;;;;12544002;23;20091;-82
2023/06/16 14:56:15;;;;;;;2.17;1.98;;;;;;;;;;12537457;23;20026;-82
2023/06/16 15:01:19;;;;;;;2.20;1.58;;;;;;;;;;12538156;23;20046;-82
2023/06/16 15:06:23;;;;;;;1.50;1.40;;;;;;;;;;12536450;23;20027;-81
2023/06/16 15:11:28;;;;;;;1.98;1.45;;;;;;;;;;12539660;23;20632;-82
2023/06/16 15:16:31;;;;;;;1.48;1.35;;;;;;;;;;12539112;23;20482;-81
2023/06/16 15:21:34;;;;;;;2.03;1.60;;;;;;;;;;12537398;23;20027;-81
2023/06/16 15:26:39;;;;;;;1.75;1.50;;;;;;;;;;12537927;23;20043;-82
2023/06/16 15:31:42;;;;;;;1.70;1.60;;;;;;;;;;12552871;23;20142;-82
2023/06/16 15:36:46;;;;;;;1.50;1.40;;;;;;;;;;12538079;23;20027;-82
2023/06/16 15:41:50;;;;;;;1.50;1.40;;;;;;;;;;12537804;23;20018;-82
2023/06/16 15:46:54;;;;;;;1.67;1.52;;;;;;;;;;12539867;23;20049;-83
2023/06/16 15:51:58;;;;;;;2.00;1.50;;;;;;;;;;12538216;23;20019;-82
2023/06/16 15:57:02;;;;;;;1.73;1.58;;;;;;;;;;12537007;23;20059;-82
2023/06/16 16:02:07;;;;;;;1.52;1.42;;;;;;;;;;12543725;23;20026;-82
2023/06/16 16:07:10;;;;;;;2.88;1.73;;;;;;;;;;12536989;23;20613;-82
2023/06/16 16:12:15;;;;;;;1.45;1.33;;;;;;;;;;12550619;23;20127;-82
2023/06/16 16:17:18;;;;;;;2.70;1.90;;;;;;;;;;12535505;23;20057;-82
2023/06/16 16:22:22;;;;;;;1.90;1.40;;;;;;;;;;12538887;23;20302;-81
2023/06/16 16:27:28;;;;;;;1.83;1.50;;;;;;;;;;12536496;23;20031;-82
2023/06/16 16:32:31;;;;;;;1.15;1.02;;;;;;;;;;12546883;23;20420;-82
2023/06/16 16:37:35;;;;;;;2.22;2.00;;;;;;;;;;12533918;23;20057;-82
2023/06/16 16:42:39;;;;;;;3.72;1.73;;;;;;;;;;12534085;23;20173;-82
2023/06/16 16:47:42;;;;;;;1.63;1.40;;;;;;;;;;12533405;23;20051;-83
2023/06/16 16:52:46;;;;;;;1.60;1.40;;;;;;;;;;12545518;23;20015;-83
2023/06/16 16:57:50;;;;;;;1.75;1.42;;;;;;;;;;12534453;23;20054;-82
2023/06/16 17:02:54;;;;;;;1.40;1.30;;;;;;;;;;12536371;23;20049;-83
2023/06/16 17:07:57;;;;;;;1.42;1.33;;;;;;;;;;12534968;23;20031;-83
2023/06/16 17:13:04;;;;;;;1.80;1.52;;;;;;;;;;12534558;23;20023;-82
2023/06/16 17:18:08;;;;;;;2.30;1.40;;;;;;;;;;12534059;23;20106;-82
2023/06/16 17:23:12;;;;;;;1.20;1.10;;;;;;;;;;12535687;23;20023;-82
2023/06/16 17:28:24;;;;;;;1.90;1.33;;;;;;;;;;12544771;23;20027;-82
2023/06/16 17:33:27;;;;;;;1.70;1.52;;;;;;;;;;12532538;23;20053;-82
2023/06/16 17:38:31;;;;;;;2.00;1.42;;;;;;;;;;12540970;23;20030;-82
2023/06/16 17:43:35;;;;;;;1.48;1.38;;;;;;;;;;12536443;23;20098;-82
2023/06/16 17:48:39;;;;;;;1.90;1.37;;;;;;;;;;12547474;23;20031;-83
2023/06/16 17:53:42;;;;;;;1.13;1.02;;;;;;;;;;12539410;23;20515;-84
2023/06/16 17:58:47;;;;;;;1.42;1.20;;;;;;;;;;12538364;23;20047;-85
2023/06/16 18:03:50;;;;;;;1.67;1.53;;;;;;;;;;12539553;23;20018;-84
2023/06/16 18:08:53;;;;;;;2.90;1.80;;;;;;;;;;12543853;23;20368;-84
2023/06/16 18:13:58;;;;;;;1.88;1.30;;;;;;;;;;12544694;23;20478;-84
2023/06/16 18:19:02;;;;;;;2.05;1.42;;;;;;;;;;12537155;23;20026;-84
2023/06/16 18:24:05;;;;;;;1.27;1.17;;;;;;;;;;12537228;23;20019;-84
2023/06/16 18:29:10;;;;;;;1.60;1.50;;;;;;;;;;12541582;23;20340;-84
2023/06/16 18:34:13;;;;;;;1.30;1.17;;;;;;;;;;12536035;23;20026;-82
2023/06/16 18:39:18;;;;;;;2.58;1.70;;;;;;;;;;12537708;23;20046;-82
2023/06/16 18:44:22;;;;;;;1.35;1.25;;;;;;;;;;12539315;23;20275;-82
2023/06/16 18:49:26;;;;;;;1.75;1.65;;;;;;;;;;12540490;23;20042;-82
2023/06/16 18:54:30;;;;;;;1.58;1.30;;;;;;;;;;12536185;23;20097;-82
2023/06/16 18:59:35;;;;;;;1.45;1.35;;;;;;;;;;12537080;23;20027;-84
2023/06/16 19:04:38;;;;;;;1.58;1.40;;;;;;;;;;12536612;23;20053;-84
2023/06/16 19:09:41;;;;;;;1.80;1.48;;;;;;;;;;12538032;23;20381;-84
2023/06/16 19:14:46;;;;;;;1.73;1.60;;;;;;;;;;12535947;23;20018;-84
2023/06/16 19:19:49;;;;;;;2.85;1.60;;;;;;;;;;12535969;23;20027;-84
2023/06/16 19:24:53;;;;;;;1.85;1.40;;;;;;;;;;12536727;23;20050;-84
2023/06/16 19:29:57;;;;;;;3.38;1.83;;;;;;;;;;12539094;23;20458;-84
2023/06/16 19:35:02;;;;;;;1.95;1.73;;;;;;;;;;12537042;23;20019;-84
2023/06/16 19:40:07;;;;;;;3.05;2.00;;;;;;;;;;12536494;23;20023;-84
2023/06/16 19:45:13;;;;;;;;;;;;;;;;;;12512076;23;20039;-83
2023/06/16 19:50:17;;;;;;;2.17;1.67;;;;;;;;;;12536553;23;19941;-84
2023/06/16 19:55:21;;;;;;;2.05;1.80;;;;;;;;;;12557731;23;20229;-83
2023/06/16 20:00:27;;;;;;;3.95;1.85;;;;;;;;;;12537431;23;20022;-83
2023/06/16 20:05:30;;;;;;;2.17;1.92;;;;;;;;;;12536241;23;20104;-83
2023/06/16 20:10:33;;;;;;;2.67;2.10;;;;;;;;;;12538028;23;20018;-83
2023/06/16 20:15:38;;;;;;;2.88;2.22;;;;;;;;;;12540375;23;20105;-83
2023/06/16 20:20:48;;;;;;;3.33;2.30;;;;;;;;;;12539403;23;20022;-83
2023/06/16 20:25:52;;;;;;;3.10;1.90;;;;;;;;;;12537126;23;20023;-84
2023/06/16 20:30:57;;;;;;;2.55;1.95;;;;;;;;;;12477472;23;20027;-84
2023/06/16 20:36:00;;;;;;;2.75;2.10;;;;;;;;;;12494348;23;20023;-83
2023/06/16 20:41:05;;;;;;;5.90;2.13;;;;;;;;;;12472550;23;20635;-84
2023/06/16 20:46:09;;;;;;;3.75;1.90;;;;;;;;;;12478336;23;20034;-84
2023/06/16 20:51:13;;;;;;;1.95;1.67;;;;;;;;;;12485746;23;20022;-83
2023/06/16 20:56:16;;;;;;;3.30;1.88;;;;;;;;;;12487948;23;20031;-83
2023/06/16 21:01:21;;;;;;;2.25;1.80;;;;;;;;;;12492753;23;20363;-84
2023/06/16 21:06:28;;;;;;;3.42;2.45;;;;;;;;;;12490064;23;20356;-84
2023/06/16 21:11:33;;;;;;;2.83;2.08;;;;;;;;;;12504596;23;20023;-83
2023/06/16 21:16:38;;;;;;;3.03;2.17;;;;;;;;;;12485099;23;20092;-84
2023/06/16 21:21:43;;;;;;;2.50;2.03;;;;;;;;;;12487290;23;20578;-83
2023/06/16 21:26:46;;;;;;;2.67;2.17;;;;;;;;;;12489635;23;20031;-84
2023/06/16 21:31:51;;;;;;;3.35;2.25;;;;;;;;;;12485764;23;20031;-83
2023/06/16 21:36:54;;;;;;;2.20;1.85;;;;;;;;;;12486801;23;20019;-83
2023/06/16 21:41:57;;;;;;;2.80;1.73;;;;;;;;;;12491780;23;20027;-84
2023/06/16 21:47:02;;;;;;;2.35;1.80;;;;;;;;;;12489603;23;20027;-83
2023/06/16 21:52:07;;;;;;;3.40;2.50;;;;;;;;;;12490937;23;20027;-83
2023/06/16 21:57:10;;;;;;;2.28;1.77;;;;;;;;;;12491451;23;20027;-83
2023/06/16 22:02:15;;;;;;;3.20;2.10;;;;;;;;;;12513606;23;20019;-82
2023/06/16 22:07:20;;;;;;;2.15;1.95;;;;;;;;;;12500879;23;20030;-82
2023/06/16 22:12:24;;;;;;;2.42;1.98;;;;;;;;;;12498755;23;20038;-83
2023/06/16 22:17:29;;;;;;;3.55;2.25;;;;;;;;;;12496115;23;20028;-83
2023/06/16 22:22:32;;;;;;;2.88;1.90;;;;;;;;;;12496555;23;20051;-83
2023/06/16 22:27:36;;;;;;;2.90;1.83;;;;;;;;;;12494731;23;20490;-83
2023/06/16 22:32:40;;;;;;;3.33;2.20;;;;;;;;;;12505233;23;20027;-82
2023/06/16 22:37:44;;;;;;;2.78;2.08;;;;;;;;;;12494368;23;20034;-81
2023/06/16 22:42:47;;;;;;;3.92;1.70;;;;;;;;;;12495919;23;20027;-84
2023/06/16 22:47:52;;;;;;;4.70;1.98;;;;;;;;;;12485950;23;20399;-83
2023/06/16 22:52:57;;;;;;;3.45;2.30;;;;;;;;;;12487726;23;20027;-84
2023/06/16 22:58:00;;;;;;;2.38;2.17;;;;;;;;;;12495250;23;20486;-83
2023/06/16 23:03:05;;;;;;;2.65;2.00;;;;;;;;;;12486007;23;20162;-83
2023/06/16 23:08:08;;;;;;;3.40;2.50;;;;;;;;;;12484219;23;20027;-85
2023/06/16 23:13:11;;;;;;;2.25;2.00;;;;;;;;;;12485073;23;20360;-84
2023/06/16 23:18:16;;;;;;;2.40;1.98;;;;;;;;;;12482086;23;20051;-85
2023/06/16 23:23:19;;;;;;;2.72;2.17;;;;;;;;;;12484221;23;20024;-83
2023/06/16 23:28:25;;;;;;;2.88;2.22;;;;;;;;;;12492263;23;20107;-83
2023/06/16 23:33:30;;;;;;;2.42;1.73;;;;;;;;;;12483705;23;20027;-83
2023/06/16 23:38:36;;;;;;;2.90;2.10;;;;;;;;;;12482716;23;20035;-83
2023/06/16 23:43:39;;;;;;;3.10;2.15;;;;;;;;;;12485180;23;20412;-83
2023/06/16 23:48:44;;;;;;;5.55;2.40;;;;;;;;;;12482553;23;20087;-82
2023/06/16 23:53:47;;;;;;;2.97;2.22;;;;;;;;;;12481236;23;20024;-85
2023/06/16 23:58:50;;;;;;;2.33;2.03;;;;;;;;;;12480018;23;20027;-85
